Time;durP1;ratioP1;P1;durP2;ratioP2;P2;SDS_P1;SDS_P2;PMS_P1;PMS_P2;Temp;Humidity;BMP_temperature;BMP_pressure;BME280_temperature;BME280_humidity;BME280_pressure;Samples;Min_cycle;Max_cycle;Signal;HPM_P1;HPM_P2
2023/06/26 00:01:31;;;;;;;0.20;0.20;;;;;;;;;;5025204;28;20057;-76
2023/06/26 00:03:58;;;;;;;0.20;0.20;;;;;;;;;;5022343;28;20332;-76
2023/06/26 00:06:25;;;;;;;0.20;0.20;;;;;;;;;;5023833;28;20057;-76
2023/06/26 00:08:53;;;;;;;1.17;0.88;;;;;;;;;;5015783;28;20633;-77
2023/06/26 00:11:20;;;;;;;0.52;0.52;;;;;;;;;;5004940;28;20054;-77
2023/06/26 00:13:46;;;;;;;0.55;0.47;;;;;;;;;;5011858;28;20042;-77
2023/06/26 00:16:13;;;;;;;0.35;0.30;;;;;;;;;;5014027;28;20570;-76
2023/06/26 00:18:39;;;;;;;1.67;0.70;;;;;;;;;;5016605;28;20513;-76
2023/06/26 00:21:06;;;;;;;0.80;0.70;;;;;;;;;;5025783;28;20514;-76
2023/06/26 00:23:36;;;;;;;0.50;0.50;;;;;;;;;;5020503;28;20062;-76
2023/06/26 00:26:06;;;;;;;0.20;0.20;;;;;;;;;;5024172;28;20110;-76
2023/06/26 00:28:32;;;;;;;1.15;0.70;;;;;;;;;;5020341;28;20133;-76
2023/06/26 00:30:59;;;;;;;1.13;0.93;;;;;;;;;;5016413;28;20058;-76
2023/06/26 00:33:25;;;;;;;0.43;0.38;;;;;;;;;;5016879;28;20663;-77
2023/06/26 00:35:52;;;;;;;0.30;0.30;;;;;;;;;;5024183;28;20166;-76
2023/06/26 00:49:19;;;;;;;0.30;0.28;;;;;;;;;;5460929;22;20050;-96
2023/06/26 00:52:19;;;;;;;2.40;0.70;;;;;;;;;;5016506;28;20062;-95
2023/06/26 00:55:07;;;;;;;0.20;0.20;;;;;;;;;;5006630;28;20084;-96
2023/06/26 00:57:50;;;;;;;0.85;0.30;;;;;;;;;;5021121;28;20064;-95
2023/06/26 01:00:33;;;;;;;0.43;0.40;;;;;;;;;;5019068;28;20128;-96
2023/06/26 01:04:01;;;;;;;;;;;;;;;;;;;;;
2023/06/26 01:07:08;;;;;;;0.20;0.20;;;;;;;;;;5013149;28;20064;-95
2023/06/26 01:09:42;;;;;;;0.20;0.20;;;;;;;;;;5015261;28;20050;-95
2023/06/26 01:12:35;;;;;;;0.40;0.30;;;;;;;;;;5028301;28;20061;-96
2023/06/26 01:15:42;;;;;;;1.75;0.30;;;;;;;;;;5004319;28;20065;-96
2023/06/26 01:18:23;;;;;;;0.20;0.20;;;;;;;;;;5005930;28;20188;-96
2023/06/26 01:21:17;;;;;;;0.20;0.20;;;;;;;;;;5022102;28;20072;-93
2023/06/26 01:24:07;;;;;;;1.35;0.57;;;;;;;;;;5019928;28;21071;-94
2023/06/26 01:26:46;;;;;;;0.43;0.32;;;;;;;;;;5026343;28;20049;-96
2023/06/26 01:29:28;;;;;;;0.52;0.32;;;;;;;;;;5022993;28;20053;-96
2023/06/26 01:32:01;;;;;;;0.15;0.15;;;;;;;;;;5027765;28;20069;-96
2023/06/26 01:34:52;;;;;;;1.05;0.50;;;;;;;;;;5019931;28;20565;-95
2023/06/26 01:42:47;;;;;;;0.50;0.40;;;;;;;;;;5146593;23;20050;-77
2023/06/26 01:45:18;;;;;;;0.20;0.20;;;;;;;;;;5040373;28;20064;-76
2023/06/26 01:50:28;;;;;;;0.20;0.20;;;;;;;;;;5533863;22;20136;-77
2023/06/26 01:53:00;;;;;;;0.90;0.50;;;;;;;;;;5021362;28;20410;-78
2023/06/26 01:55:50;;;;;;;0.20;0.20;;;;;;;;;;5041259;28;20575;-78
2023/06/26 01:58:17;;;;;;;0.30;0.30;;;;;;;;;;5026895;28;20536;-77
2023/06/26 02:00:43;;;;;;;0.10;0.10;;;;;;;;;;5035705;28;20538;-77
2023/06/26 02:03:10;;;;;;;0.30;0.30;;;;;;;;;;5034696;28;20513;-77
2023/06/26 02:05:36;;;;;;;0.43;0.43;;;;;;;;;;5042982;28;20501;-78
2023/06/26 02:08:04;;;;;;;0.28;0.22;;;;;;;;;;5038683;28;20584;-77
2023/06/26 02:10:30;;;;;;;0.30;0.30;;;;;;;;;;5043039;28;20053;-77
2023/06/26 02:12:56;;;;;;;0.30;0.30;;;;;;;;;;5029443;28;20113;-77
2023/06/26 02:15:23;;;;;;;0.50;0.30;;;;;;;;;;5041489;28;20049;-77
2023/06/26 02:17:49;;;;;;;0.38;0.35;;;;;;;;;;5030712;28;20057;-78
2023/06/26 02:20:16;;;;;;;1.08;0.40;;;;;;;;;;5028623;28;20133;-77
2023/06/26 02:22:42;;;;;;;0.20;0.20;;;;;;;;;;5038802;28;20057;-78
2023/06/26 02:25:10;;;;;;;0.20;0.20;;;;;;;;;;5029594;28;20100;-77
2023/06/26 02:27:36;;;;;;;0.70;0.30;;;;;;;;;;5024259;28;20062;-78
2023/06/26 02:30:03;;;;;;;0.10;0.10;;;;;;;;;;5028011;28;20498;-78
2023/06/26 02:32:29;;;;;;;0.50;0.38;;;;;;;;;;5033214;28;20058;-78
2023/06/26 02:34:55;;;;;;;0.20;0.20;;;;;;;;;;5024587;28;20168;-77
2023/06/26 02:37:22;;;;;;;0.50;0.30;;;;;;;;;;5024402;28;20518;-78
2023/06/26 02:39:48;;;;;;;0.77;0.32;;;;;;;;;;5024747;28;20054;-77
2023/06/26 02:42:15;;;;;;;0.20;0.20;;;;;;;;;;5028206;28;20054;-78
2023/06/26 02:44:41;;;;;;;0.20;0.20;;;;;;;;;;5035741;28;20061;-77
2023/06/26 02:47:08;;;;;;;0.20;0.20;;;;;;;;;;5026451;28;20050;-78
2023/06/26 02:49:34;;;;;;;0.35;0.28;;;;;;;;;;5024287;28;20078;-78
2023/06/26 02:52:01;;;;;;;0.55;0.47;;;;;;;;;;5028610;28;20077;-78
2023/06/26 02:54:27;;;;;;;0.47;0.40;;;;;;;;;;5032657;28;20049;-77
2023/06/26 02:56:54;;;;;;;0.50;0.43;;;;;;;;;;5038120;28;20562;-78
2023/06/26 02:59:20;;;;;;;0.98;0.73;;;;;;;;;;5044215;28;20414;-77
2023/06/26 03:01:46;;;;;;;0.45;0.35;;;;;;;;;;5040777;28;20513;-78
2023/06/26 03:04:15;;;;;;;0.20;0.20;;;;;;;;;;5027334;28;20084;-78
2023/06/26 03:06:41;;;;;;;0.10;0.10;;;;;;;;;;5032826;28;20107;-78
2023/06/26 03:09:08;;;;;;;0.20;0.20;;;;;;;;;;5027936;28;20506;-77
2023/06/26 03:11:35;;;;;;;1.85;0.47;;;;;;;;;;5028033;28;20149;-78
2023/06/26 03:14:01;;;;;;;0.25;0.25;;;;;;;;;;5041917;28;20057;-78
2023/06/26 03:16:28;;;;;;;0.15;0.13;;;;;;;;;;5047841;28;20057;-78
2023/06/26 03:18:54;;;;;;;0.35;0.35;;;;;;;;;;5047917;28;20060;-78
2023/06/26 03:21:20;;;;;;;0.25;0.25;;;;;;;;;;5047745;28;20089;-77
2023/06/26 03:23:47;;;;;;;0.20;0.20;;;;;;;;;;5033147;28;20116;-77
2023/06/26 03:26:14;;;;;;;0.35;0.22;;;;;;;;;;5042332;28;20571;-77
2023/06/26 03:28:42;;;;;;;0.20;0.20;;;;;;;;;;5033600;28;20603;-78
2023/06/26 03:31:08;;;;;;;0.30;0.30;;;;;;;;;;5046869;28;20057;-77
2023/06/26 03:33:35;;;;;;;0.13;0.13;;;;;;;;;;5039322;28;20065;-78
2023/06/26 03:36:01;;;;;;;0.30;0.30;;;;;;;;;;5029007;28;21077;-78
2023/06/26 03:38:28;;;;;;;0.20;0.20;;;;;;;;;;5026565;28;20406;-77
2023/06/26 03:40:54;;;;;;;0.13;0.13;;;;;;;;;;5025913;28;20089;-78
2023/06/26 03:43:20;;;;;;;0.20;0.20;;;;;;;;;;5027745;28;20479;-78
2023/06/26 03:45:47;;;;;;;0.20;0.20;;;;;;;;;;5026557;28;20058;-78
2023/06/26 03:48:14;;;;;;;0.20;0.20;;;;;;;;;;5025901;28;20506;-78
2023/06/26 03:50:40;;;;;;;0.20;0.20;;;;;;;;;;5025386;28;20084;-78
2023/06/26 03:53:07;;;;;;;0.20;0.20;;;;;;;;;;5027523;28;20497;-78
2023/06/26 03:55:34;;;;;;;1.45;0.50;;;;;;;;;;5027177;28;20146;-77
2023/06/26 03:58:00;;;;;;;0.55;0.47;;;;;;;;;;5034421;28;20060;-77
2023/06/26 04:00:30;;;;;;;0.13;0.13;;;;;;;;;;5028170;28;20065;-78
2023/06/26 04:02:57;;;;;;;0.28;0.25;;;;;;;;;;5027257;28;20525;-78
2023/06/26 04:05:23;;;;;;;0.30;0.30;;;;;;;;;;5030851;28;20853;-77
2023/06/26 04:07:50;;;;;;;0.15;0.15;;;;;;;;;;5031550;28;20057;-78
2023/06/26 04:10:17;;;;;;;0.10;0.10;;;;;;;;;;5025338;28;20053;-78
2023/06/26 04:12:44;;;;;;;1.17;0.55;;;;;;;;;;5031886;28;20540;-78
2023/06/26 04:15:10;;;;;;;0.30;0.30;;;;;;;;;;5035406;28;20560;-77
2023/06/26 04:17:37;;;;;;;0.30;0.30;;;;;;;;;;5026990;28;20058;-78
2023/06/26 04:20:06;;;;;;;0.65;0.47;;;;;;;;;;5026344;28;20062;-77
2023/06/26 04:22:33;;;;;;;0.30;0.30;;;;;;;;;;5028789;28;20065;-77
2023/06/26 04:25:03;;;;;;;0.50;0.50;;;;;;;;;;5026543;28;20176;-78
2023/06/26 04:27:30;;;;;;;0.20;0.20;;;;;;;;;;5037389;28;20064;-78
2023/06/26 04:29:56;;;;;;;0.32;0.30;;;;;;;;;;5025617;28;20289;-78
2023/06/26 04:32:23;;;;;;;0.20;0.20;;;;;;;;;;5024359;28;20056;-78
2023/06/26 04:34:49;;;;;;;0.30;0.30;;;;;;;;;;5024615;28;20060;-78
2023/06/26 04:37:17;;;;;;;0.20;0.20;;;;;;;;;;5025614;28;20061;-78
2023/06/26 04:39:43;;;;;;;0.10;0.10;;;;;;;;;;5025908;28;20085;-78
2023/06/26 04:42:11;;;;;;;0.10;0.10;;;;;;;;;;5028803;28;20053;-77
2023/06/26 04:44:40;;;;;;;0.13;0.13;;;;;;;;;;5045052;28;20049;-78
2023/06/26 04:47:07;;;;;;;0.32;0.32;;;;;;;;;;5033213;28;20064;-78
2023/06/26 04:49:34;;;;;;;1.75;0.73;;;;;;;;;;5043168;28;20049;-77
2023/06/26 04:52:03;;;;;;;0.20;0.20;;;;;;;;;;5028631;28;20053;-78
2023/06/26 04:54:30;;;;;;;0.20;0.20;;;;;;;;;;5045555;28;20085;-78
2023/06/26 04:56:56;;;;;;;0.88;0.82;;;;;;;;;;5043781;28;20050;-78
2023/06/26 04:59:23;;;;;;;0.20;0.20;;;;;;;;;;5045439;28;20108;-78
2023/06/26 05:01:49;;;;;;;0.20;0.20;;;;;;;;;;5042633;28;20053;-76
2023/06/26 05:04:16;;;;;;;0.90;0.35;;;;;;;;;;5031839;28;20591;-78
2023/06/26 05:06:42;;;;;;;0.20;0.20;;;;;;;;;;5023023;28;20053;-78
2023/06/26 05:09:10;;;;;;;0.10;0.10;;;;;;;;;;5023922;28;20056;-77
2023/06/26 05:11:37;;;;;;;0.10;0.10;;;;;;;;;;5026298;28;20144;-78
2023/06/26 05:14:06;;;;;;;0.57;0.57;;;;;;;;;;5023416;28;20784;-77
2023/06/26 05:16:34;;;;;;;1.13;0.65;;;;;;;;;;5024126;28;20054;-78
2023/06/26 05:19:00;;;;;;;0.15;0.15;;;;;;;;;;5023409;28;20105;-79
2023/06/26 05:21:27;;;;;;;0.10;0.10;;;;;;;;;;5021926;28;20065;-78
2023/06/26 05:23:55;;;;;;;0.38;0.38;;;;;;;;;;5026279;28;20445;-78
2023/06/26 05:26:25;;;;;;;0.20;0.20;;;;;;;;;;5023254;28;20081;-78
2023/06/26 05:28:52;;;;;;;0.20;0.20;;;;;;;;;;5021001;28;20061;-78
2023/06/26 05:31:19;;;;;;;0.82;0.20;;;;;;;;;;5023661;28;20057;-80
2023/06/26 05:33:46;;;;;;;0.30;0.30;;;;;;;;;;5023716;28;20517;-78
2023/06/26 05:36:13;;;;;;;1.98;0.30;;;;;;;;;;5027230;28;20061;-77
2023/06/26 05:38:40;;;;;;;0.38;0.38;;;;;;;;;;5032313;28;20076;-78
2023/06/26 05:41:07;;;;;;;0.20;0.20;;;;;;;;;;5029047;28;20505;-78
2023/06/26 05:43:34;;;;;;;0.10;0.10;;;;;;;;;;5023674;28;20301;-78
2023/06/26 05:46:00;;;;;;;0.20;0.20;;;;;;;;;;5024311;28;20090;-79
2023/06/26 05:48:27;;;;;;;0.30;0.30;;;;;;;;;;5025273;28;20066;-78
2023/06/26 05:50:53;;;;;;;0.40;0.35;;;;;;;;;;5040610;28;20050;-78
2023/06/26 05:53:20;;;;;;;0.20;0.20;;;;;;;;;;5028084;28;20133;-79
2023/06/26 05:55:46;;;;;;;0.28;0.28;;;;;;;;;;5027928;28;20382;-78
2023/06/26 05:58:14;;;;;;;0.22;0.22;;;;;;;;;;5038344;28;20648;-77
2023/06/26 06:00:41;;;;;;;0.20;0.20;;;;;;;;;;5038242;28;20088;-79
2023/06/26 06:03:09;;;;;;;0.20;0.20;;;;;;;;;;5023930;28;20058;-78
2023/06/26 06:05:36;;;;;;;0.20;0.20;;;;;;;;;;5039210;28;20137;-79
2023/06/26 06:08:09;;;;;;;1.38;0.55;;;;;;;;;;5037479;28;20054;-78
2023/06/26 06:10:35;;;;;;;0.10;0.10;;;;;;;;;;5023690;28;20301;-78
2023/06/26 06:13:02;;;;;;;0.35;0.20;;;;;;;;;;5042073;28;20421;-79
2023/06/26 06:15:28;;;;;;;0.20;0.20;;;;;;;;;;5039971;28;20053;-78
2023/06/26 06:17:56;;;;;;;0.20;0.20;;;;;;;;;;5041328;28;20085;-79
2023/06/26 06:20:23;;;;;;;0.20;0.20;;;;;;;;;;5022168;28;20125;-78
2023/06/26 06:22:49;;;;;;;0.20;0.20;;;;;;;;;;5041868;28;20104;-78
2023/06/26 06:25:16;;;;;;;0.15;0.15;;;;;;;;;;5037470;28;20108;-78
2023/06/26 06:27:43;;;;;;;0.63;0.15;;;;;;;;;;5038948;28;20492;-79
2023/06/26 06:30:10;;;;;;;0.20;0.20;;;;;;;;;;5028592;28;20062;-78
2023/06/26 06:32:36;;;;;;;0.15;0.15;;;;;;;;;;5028101;28;20060;-78
2023/06/26 06:35:09;;;;;;;0.10;0.10;;;;;;;;;;5032617;28;20062;-78
2023/06/26 06:37:36;;;;;;;0.30;0.30;;;;;;;;;;5024565;28;20104;-78
2023/06/26 06:40:03;;;;;;;0.20;0.20;;;;;;;;;;5027465;28;20057;-79
2023/06/26 06:42:30;;;;;;;0.30;0.30;;;;;;;;;;5029828;28;20053;-78
2023/06/26 06:44:56;;;;;;;0.40;0.40;;;;;;;;;;5031577;28;20073;-78
2023/06/26 06:47:23;;;;;;;0.20;0.20;;;;;;;;;;5028273;28;20513;-76
2023/06/26 06:52:43;;;;;;;;;;;;;;;;;;;;;
2023/06/26 06:55:24;;;;;;;0.10;0.10;;;;;;;;;;5039403;23;20062;-75
2023/06/26 06:57:51;;;;;;;0.13;0.13;;;;;;;;;;5000547;28;20059;-76
2023/06/26 07:00:18;;;;;;;0.45;0.45;;;;;;;;;;4988672;28;20565;-76
2023/06/26 07:02:45;;;;;;;0.30;0.30;;;;;;;;;;4996505;28;20094;-74
2023/06/26 07:05:12;;;;;;;0.17;0.17;;;;;;;;;;4999464;28;20058;-76
2023/06/26 07:07:39;;;;;;;0.30;0.30;;;;;;;;;;5003464;28;20149;-76
2023/06/26 07:10:06;;;;;;;0.20;0.20;;;;;;;;;;5004476;28;20065;-77
2023/06/26 07:12:33;;;;;;;0.80;0.30;;;;;;;;;;5002730;28;20050;-77
2023/06/26 07:15:04;;;;;;;0.20;0.20;;;;;;;;;;4996966;28;20157;-76
2023/06/26 07:17:31;;;;;;;0.20;0.20;;;;;;;;;;4978765;28;20132;-76
2023/06/26 07:19:59;;;;;;;0.20;0.20;;;;;;;;;;5002100;28;20059;-77
2023/06/26 07:22:25;;;;;;;0.63;0.47;;;;;;;;;;5001289;28;20058;-76
2023/06/26 07:24:52;;;;;;;2.10;0.55;;;;;;;;;;5006230;28;20058;-77
2023/06/26 07:27:19;;;;;;;0.32;0.28;;;;;;;;;;4999222;28;20058;-76
2023/06/26 07:29:46;;;;;;;0.20;0.20;;;;;;;;;;5005106;28;20529;-76
2023/06/26 07:32:12;;;;;;;0.30;0.30;;;;;;;;;;5001800;28;20058;-75
2023/06/26 07:34:41;;;;;;;0.20;0.20;;;;;;;;;;5006491;28;20058;-76
2023/06/26 07:37:07;;;;;;;0.10;0.10;;;;;;;;;;5004684;28;20069;-75
2023/06/26 07:39:34;;;;;;;0.20;0.20;;;;;;;;;;4995709;28;20058;-77
2023/06/26 07:42:00;;;;;;;0.77;0.63;;;;;;;;;;5005270;28;20065;-76
2023/06/26 07:44:27;;;;;;;0.30;0.30;;;;;;;;;;5003414;28;20109;-75
2023/06/26 07:46:53;;;;;;;0.30;0.30;;;;;;;;;;5003059;28;20605;-76
2023/06/26 07:49:20;;;;;;;0.20;0.20;;;;;;;;;;5003782;28;20058;-77
2023/06/26 07:51:46;;;;;;;0.20;0.20;;;;;;;;;;5004508;28;20050;-77
2023/06/26 07:54:13;;;;;;;0.75;0.63;;;;;;;;;;5001078;28;20613;-76
2023/06/26 07:56:55;;;;;;;0.40;0.40;;;;;;;;;;4998769;28;20065;-77
2023/06/26 07:59:23;;;;;;;0.20;0.20;;;;;;;;;;4999297;28;20062;-77
2023/06/26 08:01:50;;;;;;;0.30;0.30;;;;;;;;;;5004477;28;20533;-76
2023/06/26 08:04:17;;;;;;;0.47;0.28;;;;;;;;;;5005484;28;20113;-76
2023/06/26 08:06:44;;;;;;;0.30;0.30;;;;;;;;;;5004429;28;20137;-76
2023/06/26 08:09:12;;;;;;;0.20;0.20;;;;;;;;;;5001134;28;20393;-76
2023/06/26 08:11:39;;;;;;;0.20;0.20;;;;;;;;;;4976232;28;20854;-76
2023/06/26 08:14:05;;;;;;;0.20;0.20;;;;;;;;;;4996770;28;20106;-75
2023/06/26 08:16:31;;;;;;;0.38;0.38;;;;;;;;;;5005186;28;20054;-76
2023/06/26 08:18:58;;;;;;;0.88;0.60;;;;;;;;;;5005296;28;20057;-74
2023/06/26 08:21:24;;;;;;;0.30;0.30;;;;;;;;;;5002392;28;20101;-74
2023/06/26 08:23:51;;;;;;;0.35;0.28;;;;;;;;;;4995226;28;20084;-75
2023/06/26 08:26:17;;;;;;;3.88;0.45;;;;;;;;;;4998539;28;20055;-74
2023/06/26 08:28:44;;;;;;;0.20;0.20;;;;;;;;;;4992731;28;20058;-75
2023/06/26 08:31:10;;;;;;;0.20;0.20;;;;;;;;;;5005719;28;20057;-75
2023/06/26 08:33:37;;;;;;;0.10;0.10;;;;;;;;;;5002291;28;20585;-75
2023/06/26 08:36:03;;;;;;;0.28;0.25;;;;;;;;;;5003989;28;20781;-76
2023/06/26 08:38:30;;;;;;;0.40;0.40;;;;;;;;;;4999915;28;20108;-76
2023/06/26 08:40:56;;;;;;;0.45;0.40;;;;;;;;;;4995643;28;20153;-78
2023/06/26 08:43:22;;;;;;;0.20;0.20;;;;;;;;;;5000375;28;20063;-77
2023/06/26 08:45:51;;;;;;;0.32;0.32;;;;;;;;;;4999201;28;20113;-77
2023/06/26 08:48:18;;;;;;;0.25;0.25;;;;;;;;;;4989180;28;20058;-77
2023/06/26 08:50:46;;;;;;;0.30;0.30;;;;;;;;;;4998155;28;20453;-76
2023/06/26 08:53:33;;;;;;;0.17;0.17;;;;;;;;;;4997349;28;20546;-77
2023/06/26 08:55:59;;;;;;;0.10;0.10;;;;;;;;;;5000660;28;20058;-76
2023/06/26 08:58:26;;;;;;;0.22;0.22;;;;;;;;;;5004298;28;20055;-76
2023/06/26 09:00:53;;;;;;;0.20;0.20;;;;;;;;;;5003300;28;20109;-74
2023/06/26 09:03:20;;;;;;;0.20;0.20;;;;;;;;;;4994900;28;20054;-75
2023/06/26 09:05:47;;;;;;;0.10;0.10;;;;;;;;;;4973864;28;20475;-77
2023/06/26 09:08:14;;;;;;;0.20;0.20;;;;;;;;;;4995013;28;20059;-77
2023/06/26 09:10:40;;;;;;;0.20;0.20;;;;;;;;;;4998694;28;20676;-75
2023/06/26 09:13:09;;;;;;;0.20;0.20;;;;;;;;;;4995497;28;20172;-75
2023/06/26 09:15:54;;;;;;;0.20;0.20;;;;;;;;;;5000252;28;20222;-77
2023/06/26 09:18:21;;;;;;;0.20;0.20;;;;;;;;;;5001097;28;20055;-77
2023/06/26 09:20:50;;;;;;;0.20;0.20;;;;;;;;;;4995595;28;20089;-76
2023/06/26 09:23:17;;;;;;;0.30;0.30;;;;;;;;;;4992785;28;20142;-75
2023/06/26 09:25:46;;;;;;;0.20;0.20;;;;;;;;;;4998405;28;20717;-76
2023/06/26 09:28:13;;;;;;;0.88;0.47;;;;;;;;;;4999307;28;20564;-76
2023/06/26 09:30:40;;;;;;;0.90;0.90;;;;;;;;;;4988187;28;20554;-77
2023/06/26 09:33:17;;;;;;;0.30;0.30;;;;;;;;;;4995420;28;20573;-77
2023/06/26 09:35:44;;;;;;;0.20;0.20;;;;;;;;;;4993535;28;20054;-77
2023/06/26 09:38:14;;;;;;;0.20;0.20;;;;;;;;;;5002410;28;20141;-74
2023/06/26 09:40:41;;;;;;;0.20;0.20;;;;;;;;;;4988312;28;20060;-75
2023/06/26 09:43:09;;;;;;;0.30;0.30;;;;;;;;;;5000967;28;20525;-77
2023/06/26 09:45:36;;;;;;;0.20;0.20;;;;;;;;;;4985727;28;20142;-77
2023/06/26 09:48:03;;;;;;;0.40;0.40;;;;;;;;;;4988090;28;20065;-74
2023/06/26 09:53:15;;;;;;;0.20;0.20;;;;;;;;;;5947475;22;20319;-75
2023/06/26 09:55:43;;;;;;;0.20;0.20;;;;;;;;;;4991930;28;20160;-76
2023/06/26 09:58:14;;;;;;;0.20;0.20;;;;;;;;;;5008235;28;20109;-73
2023/06/26 10:00:42;;;;;;;0.20;0.20;;;;;;;;;;4999826;28;20591;-77
2023/06/26 10:03:09;;;;;;;0.30;0.30;;;;;;;;;;4983556;28;20662;-73
2023/06/26 10:05:36;;;;;;;0.20;0.20;;;;;;;;;;5000347;28;20065;-76
2023/06/26 10:08:03;;;;;;;0.20;0.20;;;;;;;;;;5000957;28;20058;-75
2023/06/26 10:10:31;;;;;;;0.20;0.20;;;;;;;;;;5001845;28;20585;-73
2023/06/26 10:15:48;;;;;;;0.20;0.20;;;;;;;;;;5864332;22;20077;-74
2023/06/26 10:20:57;;;;;;;0.20;0.20;;;;;;;;;;4991461;28;20054;-77
2023/06/26 10:23:25;;;;;;;0.20;0.20;;;;;;;;;;4995118;28;20692;-76
2023/06/26 10:25:53;;;;;;;0.30;0.30;;;;;;;;;;4999218;28;20082;-76
2023/06/26 10:28:20;;;;;;;0.20;0.20;;;;;;;;;;4992622;28;20059;-73
2023/06/26 10:30:48;;;;;;;0.20;0.20;;;;;;;;;;4987866;28;20063;-76
2023/06/26 10:33:15;;;;;;;0.28;0.28;;;;;;;;;;4988493;28;20110;-77
2023/06/26 10:35:45;;;;;;;0.30;0.30;;;;;;;;;;4986785;28;20142;-78
2023/06/26 10:38:11;;;;;;;0.20;0.20;;;;;;;;;;4986885;28;20502;-73
2023/06/26 10:40:45;;;;;;;0.20;0.20;;;;;;;;;;4986902;28;20105;-77
2023/06/26 10:43:14;;;;;;;0.20;0.20;;;;;;;;;;4968477;28;20065;-72
2023/06/26 10:45:52;;;;;;;0.20;0.20;;;;;;;;;;4984428;28;20061;-74
2023/06/26 10:48:19;;;;;;;0.20;0.20;;;;;;;;;;4981848;28;20553;-76
2023/06/26 10:50:49;;;;;;;0.20;0.20;;;;;;;;;;4984975;28;20514;-76
2023/06/26 10:53:37;;;;;;;;;;;;;;;;;;4988774;28;20511;-76
2023/06/26 10:56:03;;;;;;;1.90;0.35;;;;;;;;;;4986634;28;47918;-75
2023/06/26 10:58:32;;;;;;;0.30;0.30;;;;;;;;;;4984420;28;20047;-76
2023/06/26 11:01:11;;;;;;;0.20;0.20;;;;;;;;;;4987448;28;20062;-72
2023/06/26 11:03:38;;;;;;;0.20;0.20;;;;;;;;;;4987757;28;20059;-76
2023/06/26 11:06:11;;;;;;;0.77;0.38;;;;;;;;;;4985373;28;20054;-75
2023/06/26 11:08:44;;;;;;;0.20;0.20;;;;;;;;;;4982252;28;20574;-75
2023/06/26 11:11:10;;;;;;;0.30;0.30;;;;;;;;;;4968382;28;20087;-73
2023/06/26 11:13:37;;;;;;;0.28;0.28;;;;;;;;;;4987221;28;20054;-76
2023/06/26 11:16:03;;;;;;;0.30;0.30;;;;;;;;;;4983102;28;20090;-76
2023/06/26 11:18:30;;;;;;;0.20;0.20;;;;;;;;;;4986444;28;20110;-77
2023/06/26 11:26:17;;;;;;;0.25;0.22;;;;;;;;;;5139834;22;20580;-76
2023/06/26 11:28:56;;;;;;;0.25;0.25;;;;;;;;;;5014216;28;20058;-76
2023/06/26 11:31:25;;;;;;;0.38;0.30;;;;;;;;;;5005575;28;20061;-75
2023/06/26 11:33:53;;;;;;;0.30;0.30;;;;;;;;;;5015868;28;20452;-76
2023/06/26 11:36:19;;;;;;;0.20;0.20;;;;;;;;;;5022106;28;20301;-76
2023/06/26 11:38:46;;;;;;;0.40;0.40;;;;;;;;;;5015256;28;20097;-76
2023/06/26 11:41:16;;;;;;;0.20;0.20;;;;;;;;;;5021637;28;20150;-75
2023/06/26 11:43:43;;;;;;;0.20;0.20;;;;;;;;;;5010843;28;20195;-73
2023/06/26 11:46:09;;;;;;;0.32;0.32;;;;;;;;;;5022503;28;20477;-76
2023/06/26 11:48:36;;;;;;;0.20;0.20;;;;;;;;;;5005558;28;20054;-75
2023/06/26 11:51:05;;;;;;;0.20;0.20;;;;;;;;;;5019460;28;20053;-76
2023/06/26 11:53:38;;;;;;;0.20;0.20;;;;;;;;;;5014652;28;20056;-76
2023/06/26 11:56:15;;;;;;;0.85;0.63;;;;;;;;;;5005015;28;20058;-75
2023/06/26 11:58:57;;;;;;;0.20;0.20;;;;;;;;;;5010321;28;20054;-75
2023/06/26 12:01:24;;;;;;;0.20;0.20;;;;;;;;;;5009814;28;20057;-75
2023/06/26 12:03:51;;;;;;;0.20;0.20;;;;;;;;;;5008110;28;20057;-76
2023/06/26 12:06:17;;;;;;;0.30;0.30;;;;;;;;;;5017143;28;20056;-77
2023/06/26 12:08:44;;;;;;;0.40;0.40;;;;;;;;;;5004676;28;20059;-76
2023/06/26 12:11:12;;;;;;;0.90;0.63;;;;;;;;;;5023633;28;20065;-76
2023/06/26 12:13:39;;;;;;;0.20;0.20;;;;;;;;;;5009256;28;20057;-76
2023/06/26 12:16:05;;;;;;;0.30;0.30;;;;;;;;;;5006529;28;20065;-76
2023/06/26 12:18:35;;;;;;;0.20;0.20;;;;;;;;;;5017528;28;20058;-77
2023/06/26 12:21:02;;;;;;;0.28;0.28;;;;;;;;;;5012274;28;20074;-76
2023/06/26 12:23:54;;;;;;;0.20;0.20;;;;;;;;;;5005921;28;20117;-76
2023/06/26 12:26:21;;;;;;;0.20;0.20;;;;;;;;;;5000854;28;21173;-75
2023/06/26 12:28:47;;;;;;;0.25;0.25;;;;;;;;;;5011458;28;20109;-74
2023/06/26 12:31:20;;;;;;;0.20;0.20;;;;;;;;;;5005129;28;20540;-76
2023/06/26 12:33:47;;;;;;;0.68;0.40;;;;;;;;;;5004276;28;20062;-76
2023/06/26 12:36:13;;;;;;;1.92;0.50;;;;;;;;;;5008198;28;20441;-75
2023/06/26 12:38:40;;;;;;;0.32;0.32;;;;;;;;;;5012758;28;20068;-75
2023/06/26 12:41:14;;;;;;;0.20;0.20;;;;;;;;;;5013349;28;20108;-76
2023/06/26 12:43:41;;;;;;;0.40;0.40;;;;;;;;;;5022974;28;20140;-76
2023/06/26 12:46:08;;;;;;;0.20;0.20;;;;;;;;;;5008258;28;20049;-75
2023/06/26 12:48:48;;;;;;;0.30;0.30;;;;;;;;;;5023249;28;20061;-76
2023/06/26 12:51:17;;;;;;;0.40;0.40;;;;;;;;;;5005738;28;20058;-76
2023/06/26 12:53:43;;;;;;;0.30;0.30;;;;;;;;;;5012194;28;20053;-76
2023/06/26 12:56:10;;;;;;;0.20;0.20;;;;;;;;;;5023884;28;20129;-76
2023/06/26 12:58:37;;;;;;;0.80;0.50;;;;;;;;;;5010757;28;20552;-76
2023/06/26 13:01:07;;;;;;;0.30;0.30;;;;;;;;;;5014020;28;20060;-76
2023/06/26 13:03:33;;;;;;;;;;;;;;;;;;5013652;28;20062;-76
2023/06/26 13:06:00;;;;;;;0.47;0.43;;;;;;;;;;5019976;28;49836;-74
2023/06/26 13:08:27;;;;;;;0.47;0.30;;;;;;;;;;5017008;28;20528;-75
2023/06/26 13:10:53;;;;;;;0.20;0.20;;;;;;;;;;5023392;28;20085;-75
2023/06/26 13:13:20;;;;;;;0.28;0.28;;;;;;;;;;5005650;28;20050;-76
2023/06/26 13:24:13;;;;;;;0.20;0.20;;;;;;;;;;4958129;28;20051;-76
2023/06/26 13:26:39;;;;;;;0.20;0.20;;;;;;;;;;4961563;28;20178;-76
2023/06/26 13:29:06;;;;;;;0.20;0.20;;;;;;;;;;4978080;28;20054;-75
2023/06/26 13:31:32;;;;;;;0.28;0.28;;;;;;;;;;4981311;28;20059;-77
2023/06/26 13:34:00;;;;;;;0.20;0.20;;;;;;;;;;4984173;28;20138;-75
2023/06/26 13:36:26;;;;;;;0.22;0.22;;;;;;;;;;4972607;28;20493;-76
2023/06/26 13:38:55;;;;;;;0.30;0.30;;;;;;;;;;4985730;28;20059;-76
2023/06/26 13:41:22;;;;;;;0.22;0.22;;;;;;;;;;4982036;28;20530;-72
2023/06/26 13:43:49;;;;;;;0.20;0.20;;;;;;;;;;4983545;28;20058;-79
2023/06/26 13:46:17;;;;;;;0.35;0.35;;;;;;;;;;4978100;28;20687;-76
2023/06/26 13:48:44;;;;;;;0.30;0.30;;;;;;;;;;4982894;28;20055;-75
2023/06/26 13:51:10;;;;;;;0.20;0.20;;;;;;;;;;4980641;28;20066;-74
2023/06/26 13:53:37;;;;;;;1.75;0.52;;;;;;;;;;4979143;28;20058;-74
2023/06/26 13:56:03;;;;;;;0.28;0.28;;;;;;;;;;4981300;28;20059;-74
2023/06/26 13:58:32;;;;;;;0.20;0.20;;;;;;;;;;4983131;28;20059;-76
2023/06/26 14:00:59;;;;;;;0.20;0.20;;;;;;;;;;4982138;28;20085;-75
2023/06/26 14:03:26;;;;;;;0.20;0.20;;;;;;;;;;4974334;28;20055;-74
2023/06/26 14:05:52;;;;;;;0.20;0.20;;;;;;;;;;4981840;28;20059;-74
2023/06/26 14:08:19;;;;;;;0.20;0.20;;;;;;;;;;4981429;28;20082;-74
2023/06/26 14:10:45;;;;;;;1.17;0.68;;;;;;;;;;4983018;28;20563;-73
2023/06/26 14:13:15;;;;;;;0.20;0.20;;;;;;;;;;4966666;28;20492;-74
2023/06/26 14:15:41;;;;;;;;;;;;;;;;;;4981047;28;20558;-74
2023/06/26 14:18:08;;;;;;;0.20;0.20;;;;;;;;;;4969909;28;47873;-74
2023/06/26 14:20:35;;;;;;;0.20;0.20;;;;;;;;;;4973298;28;20099;-74
2023/06/26 14:23:03;;;;;;;0.20;0.20;;;;;;;;;;4966319;28;20087;-75
2023/06/26 14:25:29;;;;;;;0.75;0.75;;;;;;;;;;4982317;28;20529;-74
2023/06/26 14:27:56;;;;;;;0.20;0.20;;;;;;;;;;4980446;28;20058;-74
2023/06/26 14:30:23;;;;;;;0.63;0.40;;;;;;;;;;4982917;28;20055;-75
2023/06/26 14:32:50;;;;;;;0.20;0.20;;;;;;;;;;4985315;28;20101;-76
2023/06/26 14:35:17;;;;;;;0.40;0.40;;;;;;;;;;4980187;28;20055;-75
2023/06/26 14:37:44;;;;;;;0.20;0.20;;;;;;;;;;4977844;28;20431;-75
2023/06/26 14:40:10;;;;;;;0.20;0.20;;;;;;;;;;4992205;28;20046;-76
2023/06/26 14:42:37;;;;;;;0.20;0.20;;;;;;;;;;4981751;28;20078;-76
2023/06/26 14:45:05;;;;;;;0.20;0.20;;;;;;;;;;4979924;28;20145;-76
2023/06/26 14:47:32;;;;;;;0.30;0.28;;;;;;;;;;4977490;28;20074;-75
2023/06/26 14:49:58;;;;;;;0.20;0.20;;;;;;;;;;4980554;28;20055;-76
2023/06/26 14:52:25;;;;;;;0.20;0.20;;;;;;;;;;4978492;28;20078;-77
2023/06/26 14:54:51;;;;;;;0.20;0.20;;;;;;;;;;4981533;28;20043;-75
2023/06/26 14:57:18;;;;;;;0.20;0.20;;;;;;;;;;4975765;28;20054;-75
2023/06/26 14:59:44;;;;;;;0.20;0.20;;;;;;;;;;4978885;28;20673;-76
2023/06/26 15:02:11;;;;;;;0.20;0.20;;;;;;;;;;4981764;28;20138;-76
2023/06/26 15:04:37;;;;;;;0.30;0.30;;;;;;;;;;4982577;28;20059;-76
2023/06/26 15:07:04;;;;;;;0.20;0.20;;;;;;;;;;4984077;28;20480;-76
2023/06/26 15:09:32;;;;;;;0.57;0.40;;;;;;;;;;4983456;28;20055;-76
2023/06/26 15:11:58;;;;;;;0.20;0.20;;;;;;;;;;4983350;28;20046;-76
2023/06/26 15:14:24;;;;;;;0.20;0.20;;;;;;;;;;4979710;28;20055;-76
2023/06/26 15:16:51;;;;;;;0.32;0.20;;;;;;;;;;4985630;28;20141;-76
2023/06/26 15:19:17;;;;;;;0.20;0.20;;;;;;;;;;4983151;28;20545;-76
2023/06/26 15:21:44;;;;;;;0.20;0.20;;;;;;;;;;4998796;28;20901;-77
2023/06/26 15:24:10;;;;;;;0.20;0.20;;;;;;;;;;4988771;28;20138;-77
2023/06/26 15:26:37;;;;;;;0.20;0.20;;;;;;;;;;4983549;28;20062;-75
2023/06/26 15:29:03;;;;;;;0.28;0.28;;;;;;;;;;4982092;28;20082;-76
2023/06/26 15:31:30;;;;;;;0.43;0.43;;;;;;;;;;4984591;28;20510;-76
2023/06/26 15:33:57;;;;;;;0.52;0.50;;;;;;;;;;4994452;28;20146;-76
2023/06/26 15:36:24;;;;;;;0.25;0.20;;;;;;;;;;4985240;28;20066;-76
2023/06/26 15:38:50;;;;;;;0.20;0.20;;;;;;;;;;4983856;28;20436;-76